Time;durP1;ratioP1;P1;durP2;ratioP2;P2;SDS_P1;SDS_P2;PMS_P1;PMS_P2;Temp;Humidity;BMP_temperature;BMP_pressure;BME280_temperature;BME280_humidity;BME280_pressure;Samples;Min_cycle;Max_cycle;Signal;HPM_P1;HPM_P2
2021/09/02 00:02:03;;;;;;;0.10;0.10;;;11.60;99.90;;;;;;6186109;23;20318;-92
2021/09/02 00:04:31;;;;;;;0.00;0.00;;;11.50;99.90;;;;;;6211567;23;20016;-92
2021/09/02 00:06:59;;;;;;;0.00;0.00;;;11.50;99.90;;;;;;6237112;23;20015;-92
2021/09/02 00:09:26;;;;;;;0.00;0.00;;;11.50;99.90;;;;;;6236977;23;20012;-92
2021/09/02 00:11:53;;;;;;;0.00;0.00;;;11.50;99.90;;;;;;6212584;23;20012;-94
2021/09/02 00:14:20;;;;;;;0.10;0.10;;;11.50;99.90;;;;;;6212555;23;20009;-93
2021/09/02 00:16:48;;;;;;;0.20;0.20;;;11.50;99.90;;;;;;6212906;23;20020;-92
2021/09/02 00:19:15;;;;;;;0.10;0.10;;;11.40;99.90;;;;;;6237377;23;20013;-93
2021/09/02 00:21:42;;;;;;;0.10;0.10;;;11.40;99.90;;;;;;6212804;23;20039;-92
2021/09/02 00:24:08;;;;;;;0.10;0.10;;;11.40;99.90;;;;;;6187021;23;20012;-91
2021/09/02 00:26:35;;;;;;;0.10;0.10;;;11.40;99.90;;;;;;6236221;23;20013;-93
2021/09/02 00:29:02;;;;;;;0.10;0.10;;;11.00;99.90;;;;;;6211763;23;20437;-94
2021/09/02 00:31:29;;;;;;;0.00;0.00;;;11.30;99.90;;;;;;6237796;23;20333;-94
2021/09/02 00:33:56;;;;;;;0.10;0.10;;;11.30;99.90;;;;;;6238038;23;20096;-93
2021/09/02 00:36:23;;;;;;;0.22;0.20;;;11.30;99.90;;;;;;6237989;23;20079;-93
2021/09/02 00:38:49;;;;;;;0.38;0.20;;;11.30;99.90;;;;;;6213127;23;20012;-95
2021/09/02 00:41:16;;;;;;;0.08;0.08;;;11.30;99.90;;;;;;6213049;23;20456;-93
2021/09/02 00:43:43;;;;;;;0.00;0.00;;;11.30;99.90;;;;;;6262563;23;20048;-93
2021/09/02 00:46:11;;;;;;;0.00;0.00;;;11.30;99.90;;;;;;6237914;23;20013;-93
2021/09/02 00:48:38;;;;;;;0.10;0.10;;;11.20;99.90;;;;;;6212753;23;20153;-94
2021/09/02 00:51:05;;;;;;;0.80;0.10;;;11.30;99.90;;;;;;6236209;23;20457;-93
2021/09/02 00:53:32;;;;;;;0.10;0.10;;;11.20;99.90;;;;;;6236007;23;20013;-93
2021/09/02 00:55:59;;;;;;;0.03;0.03;;;11.20;99.90;;;;;;6211692;23;20022;-93
2021/09/02 00:58:25;;;;;;;0.00;0.00;;;11.20;99.90;;;;;;6236369;23;20040;-93
2021/09/02 01:00:52;;;;;;;0.10;0.10;;;11.20;99.90;;;;;;6236503;23;20016;-93
2021/09/02 01:03:20;;;;;;;0.00;0.00;;;11.20;99.90;;;;;;6211714;23;20012;-93
2021/09/02 01:05:54;;;;;;;0.13;0.10;;;11.10;99.90;;;;;;6236071;23;20106;-92
2021/09/02 01:08:21;;;;;;;0.10;0.10;;;11.10;99.90;;;;;;6210415;23;20014;-94
2021/09/02 01:10:49;;;;;;;0.00;0.00;;;11.10;99.90;;;;;;6236668;23;20091;-93
2021/09/02 01:13:18;;;;;;;0.00;0.00;;;11.10;99.90;;;;;;6212051;23;20016;-94
2021/09/02 01:15:45;;;;;;;0.08;0.08;;;11.10;99.90;;;;;;6237695;23;20361;-93
2021/09/02 01:18:12;;;;;;;0.00;0.00;;;11.10;99.90;;;;;;6236920;23;20012;-92
2021/09/02 01:20:39;;;;;;;0.20;0.10;;;11.10;99.90;;;;;;6212413;23;20095;-93
2021/09/02 01:23:07;;;;;;;0.08;0.08;;;11.10;99.90;;;;;;6237197;23;20072;-92
2021/09/02 01:25:42;;;;;;;0.00;0.00;;;11.10;99.90;;;;;;6237003;23;20012;-93
2021/09/02 01:28:10;;;;;;;0.00;0.00;;;11.00;99.90;;;;;;6237597;23;20437;-93
2021/09/02 01:30:39;;;;;;;0.00;0.00;;;11.00;99.90;;;;;;6238574;23;20012;-93
2021/09/02 01:33:13;;;;;;;0.20;0.20;;;11.00;99.90;;;;;;6238172;23;20008;-94
2021/09/02 01:35:40;;;;;;;0.00;0.00;;;11.10;99.90;;;;;;6238005;23;20016;-93
2021/09/02 01:38:08;;;;;;;0.00;0.00;;;11.10;99.90;;;;;;6214225;23;20019;-95
2021/09/02 01:40:41;;;;;;;0.05;0.05;;;11.00;99.90;;;;;;6213637;23;20013;-94
2021/09/02 01:43:09;;;;;;;0.00;0.00;;;10.90;99.90;;;;;;6238272;23;20015;-93
2021/09/02 01:45:36;;;;;;;0.00;0.00;;;11.00;99.90;;;;;;6239169;23;20191;-94
2021/09/02 01:48:04;;;;;;;0.00;0.00;;;10.90;99.90;;;;;;6213832;23;20018;-93
2021/09/02 01:50:33;;;;;;;0.00;0.00;;;11.10;99.90;;;;;;6238359;23;20012;-93
2021/09/02 01:53:04;;;;;;;0.00;0.00;;;11.10;99.90;;;;;;6239041;23;20447;-94
2021/09/02 01:55:31;;;;;;;0.03;0.03;;;11.00;99.90;;;;;;6238244;23;20020;-94
2021/09/02 01:57:57;;;;;;;0.00;0.00;;;11.00;99.90;;;;;;6237623;23;20017;-93
2021/09/02 02:00:24;;;;;;;0.00;0.00;;;11.10;99.90;;;;;;6236916;23;20013;-94
2021/09/02 02:02:51;;;;;;;0.00;0.00;;;11.00;99.90;;;;;;6237534;23;20016;-95
2021/09/02 02:05:19;;;;;;;0.10;0.10;;;10.90;99.90;;;;;;6237647;23;20099;-92
2021/09/02 02:07:46;;;;;;;0.10;0.10;;;10.90;99.90;;;;;;6214157;23;20087;-94
2021/09/02 02:10:20;;;;;;;0.00;0.00;;;10.90;99.90;;;;;;6238772;23;20405;-94
2021/09/02 02:12:47;;;;;;;0.10;0.10;;;10.90;99.90;;;;;;6239661;23;20092;-95
2021/09/02 02:15:15;;;;;;;0.10;0.10;;;10.90;99.90;;;;;;6239500;23;20017;-95
2021/09/02 02:17:42;;;;;;;0.00;0.00;;;10.90;99.90;;;;;;6238362;23;20023;-94
2021/09/02 02:20:10;;;;;;;0.10;0.10;;;10.30;99.90;;;;;;6239170;23;20055;-94
2021/09/02 02:22:37;;;;;;;0.00;0.00;;;10.80;99.90;;;;;;6189294;23;20013;-94
2021/09/02 02:25:08;;;;;;;0.10;0.10;;;10.80;99.90;;;;;;6238551;23;20104;-94
2021/09/02 02:27:36;;;;;;;0.10;0.10;;;10.80;99.90;;;;;;6237897;23;20016;-94
2021/09/02 02:30:05;;;;;;;0.05;0.05;;;10.80;99.90;;;;;;6239346;23;20013;-95
2021/09/02 02:32:32;;;;;;;0.10;0.10;;;10.80;99.90;;;;;;6238500;23;20008;-94
2021/09/02 02:35:00;;;;;;;0.00;0.00;;;10.80;99.90;;;;;;6238944;23;20023;-95
2021/09/02 02:37:27;;;;;;;0.10;0.10;;;10.70;99.90;;;;;;6238303;23;20096;-96
2021/09/02 02:39:54;;;;;;;0.10;0.10;;;10.70;99.90;;;;;;6213215;23;20016;-94
2021/09/02 02:42:20;;;;;;;0.10;0.10;;;10.70;99.90;;;;;;6213739;23;20003;-93
2021/09/02 02:44:47;;;;;;;0.00;0.00;;;10.70;99.90;;;;;;6237299;23;20020;-94
2021/09/02 02:47:14;;;;;;;0.10;0.10;;;10.70;99.90;;;;;;6236861;23;20096;-93
2021/09/02 02:49:41;;;;;;;0.10;0.10;;;10.60;99.90;;;;;;6237044;23;20091;-93
2021/09/02 02:52:09;;;;;;;0.10;0.10;;;10.70;99.90;;;;;;6237884;23;20091;-94
2021/09/02 02:54:36;;;;;;;0.10;0.10;;;10.60;99.90;;;;;;6238077;23;20035;-95
2021/09/02 02:57:05;;;;;;;0.10;0.10;;;10.60;99.90;;;;;;6238250;23;20013;-95
2021/09/02 02:59:32;;;;;;;0.00;0.00;;;10.60;99.90;;;;;;6238663;23;20044;-95
2021/09/02 03:01:59;;;;;;;0.10;0.10;;;10.70;99.90;;;;;;6239082;23;20469;-94
2021/09/02 03:04:26;;;;;;;0.10;0.10;;;10.60;99.90;;;;;;6212756;23;20016;-92
2021/09/02 03:06:53;;;;;;;0.10;0.10;;;10.60;99.90;;;;;;6238089;23;20048;-96
2021/09/02 03:09:19;;;;;;;0.00;0.00;;;10.60;99.90;;;;;;6238408;23;20009;-95
2021/09/02 03:11:46;;;;;;;0.03;0.03;;;10.60;99.90;;;;;;6238140;23;20020;-95
2021/09/02 03:14:13;;;;;;;0.00;0.00;;;10.50;99.90;;;;;;6238886;23;20433;-95
2021/09/02 03:16:40;;;;;;;0.03;0.03;;;10.50;99.90;;;;;;6238601;23;20016;-95
2021/09/02 03:19:07;;;;;;;0.00;0.00;;;10.50;99.90;;;;;;6237807;23;20103;-94
2021/09/02 03:21:34;;;;;;;0.10;0.10;;;10.50;99.90;;;;;;6212773;23;20001;-95
2021/09/02 03:24:04;;;;;;;0.00;0.00;;;10.50;99.90;;;;;;6239100;23;20001;-94
2021/09/02 03:26:30;;;;;;;0.10;0.10;;;10.50;99.90;;;;;;6238157;23;20001;-92
2021/09/02 03:28:58;;;;;;;0.10;0.10;;;10.50;99.90;;;;;;6236158;23;20448;-96
2021/09/02 03:31:25;;;;;;;0.10;0.10;;;10.50;99.90;;;;;;6236424;23;20016;-95
2021/09/02 03:33:51;;;;;;;0.00;0.00;;;10.40;99.90;;;;;;6211483;23;20019;-94
2021/09/02 03:36:18;;;;;;;0.00;0.00;;;10.40;99.90;;;;;;6237380;23;20020;-94
2021/09/02 03:38:45;;;;;;;0.10;0.10;;;10.50;99.90;;;;;;6237891;23;20020;-94
2021/09/02 03:41:12;;;;;;;0.25;0.17;;;10.50;99.90;;;;;;6213633;23;20073;-94
2021/09/02 03:43:39;;;;;;;0.10;0.10;;;10.50;99.90;;;;;;6212216;23;20023;-94
2021/09/02 03:46:05;;;;;;;0.10;0.10;;;10.50;99.90;;;;;;6237696;23;20040;-94
2021/09/02 03:48:32;;;;;;;0.05;0.05;;;10.50;99.90;;;;;;6212833;23;20020;-93
2021/09/02 03:50:59;;;;;;;0.00;0.00;;;10.60;99.90;;;;;;6237931;23;20051;-94
2021/09/02 03:53:27;;;;;;;0.00;0.00;;;10.60;99.90;;;;;;6238171;23;20325;-94
2021/09/02 03:55:54;;;;;;;0.00;0.00;;;10.70;99.90;;;;;;6237474;23;20035;-93
2021/09/02 03:58:21;;;;;;;0.10;0.10;;;10.70;99.90;;;;;;6237666;23;20016;-93
2021/09/02 04:00:47;;;;;;;0.00;0.00;;;10.80;99.90;;;;;;6262537;23;20110;-94
2021/09/02 04:03:14;;;;;;;0.10;0.10;;;10.80;99.90;;;;;;6213389;23;20000;-93
2021/09/02 04:05:47;;;;;;;0.10;0.10;;;10.80;99.90;;;;;;6215590;23;19997;-93
2021/09/02 04:08:14;;;;;;;0.08;0.08;;;11.10;99.90;;;;;;6237761;23;20108;-94
2021/09/02 04:10:40;;;;;;;0.03;0.03;;;10.90;99.90;;;;;;6236930;23;20009;-94
2021/09/02 04:13:07;;;;;;;0.10;0.10;;;11.30;99.90;;;;;;6236540;23;20008;-93
2021/09/02 04:15:34;;;;;;;0.10;0.10;;;10.90;99.90;;;;;;6212034;23;20109;-92
2021/09/02 04:18:01;;;;;;;0.00;0.00;;;10.20;99.90;;;;;;6213036;23;20035;-94
2021/09/02 04:20:28;;;;;;;0.10;0.10;;;10.90;99.90;;;;;;6237469;23;20013;-94
2021/09/02 04:22:55;;;;;;;0.10;0.10;;;10.90;99.90;;;;;;6237392;23;20023;-94
2021/09/02 04:25:21;;;;;;;0.00;0.00;;;11.00;99.90;;;;;;6237282;23;20012;-93
2021/09/02 04:27:48;;;;;;;0.00;0.00;;;11.10;99.90;;;;;;6237240;23;20023;-94
2021/09/02 04:30:15;;;;;;;0.10;0.10;;;11.10;99.90;;;;;;6237383;23;20017;-95
2021/09/02 04:32:42;;;;;;;0.10;0.10;;;11.20;99.90;;;;;;6237616;23;20013;-95
2021/09/02 04:35:11;;;;;;;0.10;0.10;;;11.20;99.90;;;;;;6237007;23;20016;-94
2021/09/02 04:37:39;;;;;;;0.00;0.00;;;11.30;99.90;;;;;;6237271;23;20035;-94
2021/09/02 04:40:08;;;;;;;0.00;0.00;;;11.40;99.90;;;;;;6236790;23;20017;-93
2021/09/02 04:42:35;;;;;;;0.00;0.00;;;11.40;99.90;;;;;;6237227;23;20017;-93
2021/09/02 04:45:04;;;;;;;0.00;0.00;;;11.50;99.90;;;;;;6237434;23;20016;-94
2021/09/02 04:47:31;;;;;;;0.10;0.10;;;11.60;99.90;;;;;;6237100;23;20025;-94
2021/09/02 04:49:58;;;;;;;0.00;0.00;;;11.60;99.90;;;;;;6237053;23;20020;-94
2021/09/02 04:52:25;;;;;;;0.00;0.00;;;11.70;99.90;;;;;;6237810;23;20063;-93
2021/09/02 04:54:52;;;;;;;0.00;0.00;;;11.80;99.90;;;;;;6212526;23;20024;-93
2021/09/02 04:57:19;;;;;;;0.00;0.00;;;11.80;99.90;;;;;;6213247;23;20016;-94
2021/09/02 04:59:46;;;;;;;0.00;0.00;;;11.90;99.90;;;;;;6238361;23;20017;-93
2021/09/02 05:02:14;;;;;;;0.00;0.00;;;11.90;99.90;;;;;;6239159;23;20433;-93
2021/09/02 05:04:41;;;;;;;0.10;0.10;;;12.00;99.90;;;;;;6238712;23;20096;-94
2021/09/02 05:07:08;;;;;;;0.10;0.10;;;12.00;99.90;;;;;;6239583;23;20009;-93
2021/09/02 05:09:35;;;;;;;0.10;0.10;;;12.00;99.90;;;;;;6239568;23;20468;-93
2021/09/02 05:12:02;;;;;;;0.00;0.00;;;12.00;99.90;;;;;;6214021;23;20012;-93
2021/09/02 05:14:29;;;;;;;0.10;0.10;;;12.10;99.90;;;;;;6238936;23;20062;-94
2021/09/02 05:16:56;;;;;;;0.10;0.10;;;12.10;99.90;;;;;;6238628;23;20015;-93
2021/09/02 05:19:22;;;;;;;0.00;0.00;;;12.20;99.90;;;;;;6214990;23;20020;-93
2021/09/02 05:21:49;;;;;;;0.05;0.05;;;12.20;99.90;;;;;;6218358;23;20024;-93
2021/09/02 05:24:16;;;;;;;0.10;0.10;;;12.30;99.90;;;;;;6236560;23;20078;-94
2021/09/02 05:26:43;;;;;;;0.00;0.00;;;12.30;99.90;;;;;;6236536;23;20020;-91
2021/09/02 05:29:10;;;;;;;0.03;0.03;;;12.30;99.90;;;;;;6260491;23;20023;-91
2021/09/02 05:31:36;;;;;;;0.00;0.00;;;12.40;99.90;;;;;;6236178;23;20031;-88
2021/09/02 05:34:03;;;;;;;0.00;0.00;;;12.40;99.90;;;;;;6236138;23;20019;-89
2021/09/02 05:36:30;;;;;;;0.10;0.10;;;12.40;99.90;;;;;;6210217;23;20503;-88
2021/09/02 05:38:56;;;;;;;0.10;0.10;;;12.40;99.90;;;;;;6186142;23;20016;-90
2021/09/02 05:41:23;;;;;;;0.10;0.10;;;12.50;99.90;;;;;;6235967;23;20016;-90
2021/09/02 05:43:50;;;;;;;0.10;0.10;;;12.60;99.90;;;;;;6211562;23;20068;-90
2021/09/02 05:46:20;;;;;;;0.00;0.00;;;12.60;99.90;;;;;;6187518;23;20384;-94
2021/09/02 05:48:47;;;;;;;0.00;0.00;;;12.60;99.90;;;;;;6236837;23;20376;-91
2021/09/02 05:51:14;;;;;;;0.08;0.08;;;12.70;99.90;;;;;;6185925;23;20008;-91
2021/09/02 05:53:40;;;;;;;0.00;0.00;;;12.80;99.90;;;;;;6211369;23;20437;-92
2021/09/02 05:56:11;;;;;;;0.00;0.00;;;12.80;99.90;;;;;;6238826;23;20017;-96
2021/09/02 05:58:38;;;;;;;0.00;0.00;;;12.80;99.90;;;;;;6238997;23;20019;-93
2021/09/02 06:01:05;;;;;;;0.00;0.00;;;12.90;99.90;;;;;;6237442;23;20055;-89
2021/09/02 06:03:37;;;;;;;0.03;0.03;;;12.90;99.90;;;;;;6213614;23;20016;-92
2021/09/02 06:06:04;;;;;;;0.20;0.20;;;12.90;99.90;;;;;;6239239;23;20075;-94
2021/09/02 06:08:46;;;;;;;0.00;0.00;;;12.90;99.90;;;;;;6236806;23;20008;-95
2021/09/02 06:11:31;;;;;;;0.00;0.00;;;13.00;99.90;;;;;;6214806;23;20008;-96
2021/09/02 06:14:32;;;;;;;0.00;0.00;;;13.00;99.90;;;;;;6230733;23;20017;-90
2021/09/02 06:17:11;;;;;;;0.00;0.00;;;13.60;99.90;;;;;;6192472;23;20786;-91
2021/09/02 06:19:42;;;;;;;0.00;0.00;;;13.00;99.90;;;;;;6210615;23;20019;-90
2021/09/02 06:22:22;;;;;;;0.10;0.10;;;13.10;99.90;;;;;;6210752;23;20072;-95
2021/09/02 06:25:10;;;;;;;0.00;0.00;;;13.10;99.90;;;;;;6233756;23;20016;-91
2021/09/02 06:27:38;;;;;;;0.00;0.00;;;13.20;99.90;;;;;;6232891;23;20025;-92
2021/09/02 06:30:13;;;;;;;0.00;0.00;;;13.20;99.90;;;;;;6235574;23;20020;-94
2021/09/02 06:32:40;;;;;;;0.00;0.00;;;13.20;99.90;;;;;;6233756;23;20314;-91
2021/09/02 06:35:07;;;;;;;0.15;0.15;;;13.20;99.90;;;;;;6232640;23;20095;-90
2021/09/02 06:37:34;;;;;;;0.00;0.00;;;13.20;99.90;;;;;;6234635;23;20333;-93
2021/09/02 06:40:12;;;;;;;;;;;;;;;;;;;;;
2021/09/02 06:43:07;;;;;;;;;;;;;;;;;;;;;
2021/09/02 06:46:04;;;;;;;0.00;0.00;;;13.40;99.90;;;;;;6247910;23;20028;-94
2021/09/02 06:48:32;;;;;;;0.00;0.00;;;13.50;99.90;;;;;;6265981;23;20131;-95
2021/09/02 06:59:16;;;;;;;0.00;0.00;;;13.30;99.90;;;;;;6204434;23;20012;-94
2021/09/02 07:06:33;;;;;;;0.00;0.00;;;13.70;99.90;;;;;;6147922;23;20021;-96
2021/09/02 07:17:06;;;;;;;0.10;0.10;;;14.00;99.90;;;;;;6051636;23;20020;-93
2021/09/02 07:19:57;;;;;;;0.10;0.10;;;14.10;99.90;;;;;;6108744;23;20022;-96
2021/09/02 07:22:32;;;;;;;1.10;0.20;;;14.10;99.90;;;;;;6063044;23;20485;-93
2021/09/02 07:25:52;;;;;;;;;;;;;;;;;;;;;
2021/09/02 10:13:02;;;;;;;0.43;0.30;;;17.70;99.90;;;;;;6260037;23;20024;-87
2021/09/02 10:15:38;;;;;;;0.85;0.45;;;17.80;99.90;;;;;;6237677;23;20024;-88
2021/09/02 10:18:12;;;;;;;0.73;0.47;;;17.80;99.90;;;;;;6191342;23;20027;-88
2021/09/02 10:20:42;;;;;;;0.90;0.35;;;17.80;99.90;;;;;;6217925;23;20345;-88
2021/09/02 10:23:09;;;;;;;0.35;0.30;;;17.80;99.90;;;;;;6242129;23;20012;-88
2021/09/02 10:25:38;;;;;;;0.35;0.20;;;17.80;99.90;;;;;;6214587;23;20111;-89
2021/09/02 10:28:11;;;;;;;0.63;0.50;;;17.80;99.90;;;;;;6215301;23;20074;-89
2021/09/02 10:30:45;;;;;;;0.35;0.35;;;17.80;99.90;;;;;;6239195;23;20043;-89
2021/09/02 10:33:33;;;;;;;1.25;0.75;;;17.90;99.90;;;;;;6264409;23;20044;-90
2021/09/02 10:36:26;;;;;;;1.58;0.50;;;17.90;99.90;;;;;;6239739;23;20065;-90
2021/09/02 10:38:56;;;;;;;0.55;0.35;;;17.90;99.90;;;;;;6240657;23;20023;-91
2021/09/02 10:41:36;;;;;;;1.25;0.55;;;17.90;99.90;;;;;;6240469;23;20016;-89
2021/09/02 10:44:17;;;;;;;1.60;0.50;;;17.90;99.90;;;;;;6240227;23;20476;-90
2021/09/02 10:47:18;;;;;;;0.75;0.43;;;17.90;99.90;;;;;;6238953;23;20333;-89
2021/09/02 10:50:00;;;;;;;0.65;0.40;;;17.90;99.90;;;;;;6238102;23;20012;-88
2021/09/02 10:52:29;;;;;;;0.55;0.30;;;18.00;99.90;;;;;;6238250;23;20460;-90
2021/09/02 10:55:41;;;;;;;1.40;0.52;;;18.10;99.90;;;;;;6217856;23;20020;-90
2021/09/02 10:58:09;;;;;;;3.08;0.52;;;18.10;99.90;;;;;;6235864;23;20012;-88
2021/09/02 11:00:38;;;;;;;0.85;0.43;;;18.10;99.90;;;;;;6241432;23;20110;-90
2021/09/02 11:03:16;;;;;;;1.55;0.52;;;18.10;99.90;;;;;;6241732;23;20023;-89
2021/09/02 11:05:51;;;;;;;0.60;0.35;;;18.10;99.90;;;;;;6241519;23;20091;-88
2021/09/02 11:08:36;;;;;;;0.65;0.30;;;18.10;99.90;;;;;;6266718;23;20008;-89
2021/09/02 11:11:14;;;;;;;0.85;0.43;;;18.10;99.90;;;;;;6240956;23;20510;-89
2021/09/02 11:13:43;;;;;;;0.85;0.45;;;18.20;99.90;;;;;;6241421;23;20077;-87
2021/09/02 11:16:13;;;;;;;0.20;0.20;;;18.20;99.90;;;;;;6241798;23;20042;-88
2021/09/02 11:18:41;;;;;;;0.45;0.40;;;18.30;99.90;;;;;;6266618;23;20023;-89
2021/09/02 11:21:16;;;;;;;5.00;0.43;;;18.30;99.90;;;;;;6242169;23;20090;-91
2021/09/02 11:26:56;;;;;;;0.85;0.45;;;18.40;99.90;;;;;;6249851;23;20082;-88
2021/09/02 11:32:34;;;;;;;5.00;0.70;;;18.50;99.90;;;;;;6250978;23;20016;-88
2021/09/02 11:35:02;;;;;;;0.93;0.40;;;18.70;99.90;;;;;;6217556;23;20016;-87
2021/09/02 11:41:07;;;;;;;0.68;0.50;;;18.80;99.90;;;;;;6253049;23;20016;-91
2021/09/02 11:43:42;;;;;;;0.77;0.40;;;18.90;99.90;;;;;;6241939;23;20016;-92
2021/09/02 11:57:26;;;;;;;1.02;0.38;;;19.10;99.90;;;;;;6141996;23;20113;-87
2021/09/02 11:59:53;;;;;;;1.10;0.65;;;19.00;99.90;;;;;;6177211;23;20016;-88
2021/09/02 12:02:20;;;;;;;1.00;0.52;;;19.00;99.90;;;;;;6244209;23;20433;-88
2021/09/02 12:04:52;;;;;;;1.45;0.60;;;19.00;99.90;;;;;;6244303;23;20051;-90
2021/09/02 12:07:19;;;;;;;1.27;0.60;;;19.10;99.90;;;;;;6244307;23;20372;-93
2021/09/02 12:10:28;;;;;;;0.57;0.35;;;19.10;99.90;;;;;;6244038;23;20097;-89
2021/09/02 12:13:25;;;;;;;0.80;0.45;;;19.10;99.90;;;;;;6244352;23;20047;-89
2021/09/02 12:16:08;;;;;;;0.20;0.20;;;19.10;99.90;;;;;;6213105;23;20024;-89
2021/09/02 12:18:41;;;;;;;1.40;0.70;;;19.10;99.90;;;;;;6187840;23;20434;-90
2021/09/02 12:21:28;;;;;;;1.05;0.60;;;19.10;99.90;;;;;;6213582;23;20048;-91
2021/09/02 12:24:07;;;;;;;1.02;0.47;;;19.10;99.90;;;;;;6214953;23;20012;-92
2021/09/02 12:26:58;;;;;;;0.88;0.43;;;19.10;99.90;;;;;;6211743;23;20012;-89
2021/09/02 12:29:26;;;;;;;0.47;0.32;;;19.10;99.90;;;;;;6212650;23;20337;-91
2021/09/02 12:31:55;;;;;;;3.28;0.82;;;19.00;99.90;;;;;;6212695;23;20456;-91
2021/09/02 12:34:30;;;;;;;1.33;0.57;;;19.00;99.90;;;;;;6213866;23;20015;-89
2021/09/02 12:37:06;;;;;;;1.13;0.50;;;19.00;99.90;;;;;;6214308;23;20018;-90
2021/09/02 12:39:36;;;;;;;1.40;0.73;;;19.00;99.90;;;;;;6214089;23;20013;-89
2021/09/02 12:42:06;;;;;;;1.40;0.55;;;19.10;99.90;;;;;;6215462;23;20047;-92
2021/09/02 12:44:34;;;;;;;0.65;0.38;;;19.10;99.90;;;;;;6214509;23;20066;-91
2021/09/02 12:47:14;;;;;;;1.00;0.40;;;19.00;99.90;;;;;;6215478;23;20091;-92
2021/09/02 12:49:49;;;;;;;1.30;0.65;;;19.00;99.90;;;;;;6213838;23;20074;-93
2021/09/02 12:52:24;;;;;;;0.57;0.40;;;19.00;99.90;;;;;;6214882;23;20009;-94
2021/09/02 12:55:05;;;;;;;1.10;0.63;;;19.00;99.90;;;;;;6215684;23;20023;-92
2021/09/02 12:57:35;;;;;;;2.28;1.00;;;19.10;99.90;;;;;;6212647;23;20017;-94
2021/09/02 13:00:05;;;;;;;0.75;0.57;;;19.10;99.90;;;;;;6215045;23;20016;-92
2021/09/02 13:02:32;;;;;;;1.10;0.75;;;19.10;99.90;;;;;;6213674;23;20012;-91
2021/09/02 13:04:58;;;;;;;0.73;0.35;;;19.10;99.90;;;;;;6214127;23;20017;-92
2021/09/02 13:07:26;;;;;;;2.33;0.63;;;19.30;99.90;;;;;;6214403;23;20001;-93
2021/09/02 13:09:56;;;;;;;0.75;0.45;;;19.50;99.90;;;;;;6214872;23;20013;-93
2021/09/02 13:12:23;;;;;;;0.43;0.30;;;19.50;99.90;;;;;;6212442;23;20013;-91
2021/09/02 13:14:50;;;;;;;2.67;0.43;;;19.60;99.90;;;;;;6222951;23;20039;-92
2021/09/02 13:17:16;;;;;;;0.43;0.30;;;19.60;99.90;;;;;;6237275;23;20020;-93
2021/09/02 13:19:43;;;;;;;0.98;0.63;;;19.60;99.90;;;;;;6261075;23;20095;-90
2021/09/02 13:22:16;;;;;;;1.10;0.50;;;19.50;99.90;;;;;;6212717;23;20028;-94
2021/09/02 13:24:43;;;;;;;1.30;0.57;;;19.50;99.90;;;;;;6237565;23;20017;-91
2021/09/02 13:27:10;;;;;;;1.35;0.70;;;19.60;99.90;;;;;;6212851;23;20019;-93
2021/09/02 13:29:37;;;;;;;0.73;0.47;;;19.60;99.90;;;;;;6237203;23;20345;-93
2021/09/02 13:32:07;;;;;;;1.52;0.73;;;19.50;99.90;;;;;;6237500;23;20071;-95
2021/09/02 13:34:34;;;;;;;0.95;0.60;;;19.60;99.90;;;;;;6240401;23;20445;-92
2021/09/02 13:37:02;;;;;;;1.50;0.57;;;19.60;99.90;;;;;;6238336;23;20043;-92
2021/09/02 13:39:32;;;;;;;1.10;0.57;;;19.70;99.90;;;;;;6262003;23;20020;-92
2021/09/02 13:42:16;;;;;;;1.63;0.70;;;19.80;99.90;;;;;;6236785;23;20083;-94
2021/09/02 13:44:43;;;;;;;0.68;0.40;;;19.90;99.90;;;;;;6214257;23;20020;-92
2021/09/02 13:47:29;;;;;;;1.58;0.52;;;19.90;99.90;;;;;;6237645;23;20017;-90
2021/09/02 13:49:59;;;;;;;;;;;19.90;99.90;;;;;;6243750;23;20430;-94
2021/09/02 13:52:26;;;;;;;1.80;0.98;;;19.80;99.90;;;;;;6238559;23;19919;-94
2021/09/02 13:54:53;;;;;;;3.90;0.70;;;19.80;99.90;;;;;;6238128;23;20016;-92
2021/09/02 13:57:43;;;;;;;0.73;0.55;;;19.70;99.90;;;;;;6239223;23;20035;-95
2021/09/02 14:00:13;;;;;;;1.17;0.50;;;19.60;99.90;;;;;;6213065;23;20013;-91
2021/09/02 14:02:41;;;;;;;1.17;0.60;;;19.60;99.90;;;;;;6237391;23;20020;-91
2021/09/02 14:05:09;;;;;;;1.02;0.60;;;19.50;99.90;;;;;;6216496;23;20092;-92
2021/09/02 14:07:43;;;;;;;0.88;0.60;;;19.50;99.90;;;;;;6245992;23;20020;-95
2021/09/02 14:10:26;;;;;;;1.38;0.50;;;19.30;99.90;;;;;;6244966;23;20021;-96
2021/09/02 14:12:59;;;;;;;1.38;0.50;;;19.40;99.90;;;;;;6246760;23;20012;-96
2021/09/02 14:21:26;;;;;;;0.52;0.32;;;19.70;99.90;;;;;;6265576;22;20017;-92
2021/09/02 14:23:54;;;;;;;0.70;0.40;;;19.70;99.90;;;;;;6213384;23;20020;-93
2021/09/02 14:26:26;;;;;;;1.10;0.80;;;19.80;99.90;;;;;;6189801;23;20020;-94
2021/09/02 14:28:54;;;;;;;0.82;0.40;;;19.80;99.90;;;;;;6214448;23;20020;-93
2021/09/02 14:31:21;;;;;;;0.68;0.45;;;19.70;99.90;;;;;;6213739;23;20023;-94
2021/09/02 14:33:48;;;;;;;0.98;0.60;;;19.60;99.90;;;;;;6214337;23;20380;-96
2021/09/02 14:36:19;;;;;;;1.25;0.63;;;19.60;99.90;;;;;;6215709;23;20023;-96
2021/09/02 14:38:45;;;;;;;1.02;0.60;;;19.60;99.90;;;;;;6219165;23;20024;-96
2021/09/02 14:41:16;;;;;;;2.45;0.90;;;19.50;99.90;;;;;;6224219;23;20065;-96
2021/09/02 14:43:43;;;;;;;2.58;0.90;;;19.50;99.90;;;;;;6223367;23;20028;-96
2021/09/02 14:46:10;;;;;;;0.80;0.50;;;19.50;99.90;;;;;;6227974;23;20081;-96
2021/09/02 14:48:37;;;;;;;1.33;0.45;;;19.50;99.90;;;;;;6223763;23;20364;-96
2021/09/02 15:28:28;;;;;;;1.27;0.63;;;18.80;99.90;;;;;;6234752;23;20031;-90
2021/09/02 15:31:10;;;;;;;1.17;0.55;;;18.80;99.90;;;;;;6186300;23;20096;-92
2021/09/02 15:37:46;;;;;;;2.15;0.88;;;18.80;99.90;;;;;;6154923;23;20385;-92
2021/09/02 15:40:26;;;;;;;1.15;0.60;;;18.90;99.90;;;;;;6036379;23;20023;-92
2021/09/02 15:43:50;;;;;;;2.00;0.80;;;18.90;99.90;;;;;;6038435;23;20022;-92
2021/09/02 15:46:34;;;;;;;1.13;0.43;;;18.80;99.90;;;;;;6186254;23;20009;-93
2021/09/02 15:49:07;;;;;;;1.33;0.77;;;18.80;99.90;;;;;;6137082;23;20024;-91
2021/09/02 15:51:42;;;;;;;1.20;0.35;;;18.70;99.90;;;;;;6184524;23;20041;-91
2021/09/02 15:54:36;;;;;;;2.13;0.80;;;18.70;99.90;;;;;;6184976;23;20013;-91
2021/09/02 15:57:19;;;;;;;1.88;0.65;;;18.60;99.90;;;;;;6160286;23;20013;-91
2021/09/02 15:59:59;;;;;;;2.33;0.60;;;18.50;99.90;;;;;;6182794;23;20009;-93
2021/09/02 16:02:46;;;;;;;2.17;0.90;;;18.50;99.90;;;;;;6155654;23;20013;-91
2021/09/02 16:05:34;;;;;;;1.05;0.57;;;18.50;99.90;;;;;;6139966;23;20055;-91
2021/09/02 16:08:21;;;;;;;0.73;0.43;;;18.40;99.90;;;;;;6162121;23;20024;-89
2021/09/02 16:11:07;;;;;;;3.47;0.70;;;18.40;99.90;;;;;;6183375;23;20017;-92
2021/09/02 16:13:55;;;;;;;0.82;0.55;;;18.30;99.90;;;;;;6183882;23;20040;-92
2021/09/02 16:16:27;;;;;;;1.27;0.50;;;18.30;99.90;;;;;;6162302;23;20406;-91
2021/09/02 16:18:58;;;;;;;1.67;0.70;;;18.20;99.90;;;;;;6184274;23;20013;-91
2021/09/02 16:21:39;;;;;;;0.45;0.30;;;18.20;99.90;;;;;;6184134;23;20024;-91
2021/09/02 16:24:06;;;;;;;1.00;0.55;;;18.20;99.90;;;;;;6155817;23;20017;-91
2021/09/02 16:26:33;;;;;;;1.25;0.57;;;18.10;99.90;;;;;;6162079;23;20070;-91
2021/09/02 16:29:00;;;;;;;0.90;0.55;;;18.10;99.90;;;;;;6207148;23;20024;-91
2021/09/02 16:31:27;;;;;;;1.58;0.73;;;18.10;99.90;;;;;;6207633;23;20460;-91
2021/09/02 16:33:55;;;;;;;1.75;0.60;;;18.00;99.90;;;;;;6233177;23;20066;-91
2021/09/02 16:36:25;;;;;;;1.60;0.75;;;18.00;99.90;;;;;;6208199;23;20024;-91
2021/09/02 16:38:52;;;;;;;1.13;0.60;;;17.90;99.90;;;;;;6183092;23;20013;-91
2021/09/02 16:41:19;;;;;;;1.30;0.60;;;18.00;99.90;;;;;;6183216;23;20048;-91
2021/09/02 16:44:07;;;;;;;0.45;0.32;;;17.90;99.90;;;;;;6208048;23;20017;-91
2021/09/02 16:47:19;;;;;;;2.05;1.15;;;18.00;99.90;;;;;;6208459;23;20020;-92
2021/09/02 16:50:02;;;;;;;;;;;17.90;99.90;;;;;;6235923;23;20028;-92
2021/09/02 16:52:40;;;;;;;0.63;0.40;;;17.70;99.90;;;;;;6189015;23;19912;-91
2021/09/02 16:55:33;;;;;;;;;;;;;;;;;;;;;
2021/09/02 16:58:22;;;;;;;;;;;;;;;;;;;;;
2021/09/02 17:00:50;;;;;;;1.55;0.80;;;17.60;99.90;;;;;;6234882;23;20017;-91
2021/09/02 17:03:26;;;;;;;0.70;0.50;;;17.60;99.90;;;;;;6210665;23;20438;-91
2021/09/02 17:06:24;;;;;;;0.98;0.60;;;17.60;99.90;;;;;;6187205;23;20024;-92
2021/09/02 17:09:14;;;;;;;0.35;0.25;;;17.60;99.90;;;;;;6210171;23;20052;-91
2021/09/02 17:11:51;;;;;;;1.25;0.63;;;17.50;99.90;;;;;;6161751;23;20013;-91
2021/09/02 17:14:19;;;;;;;0.35;0.22;;;17.40;99.90;;;;;;6184055;23;20013;-91
2021/09/02 17:19:49;;;;;;;0.90;0.47;;;17.40;99.90;;;;;;6207569;23;20036;-90
2021/09/02 17:22:19;;;;;;;1.63;0.55;;;17.20;99.90;;;;;;6160194;23;20013;-91
2021/09/02 17:24:52;;;;;;;0.55;0.38;;;17.20;99.90;;;;;;6160824;23;20068;-91
2021/09/02 17:27:19;;;;;;;0.43;0.28;;;17.20;99.90;;;;;;6182646;23;20025;-92
2021/09/02 17:29:46;;;;;;;0.80;0.35;;;17.10;99.90;;;;;;6183234;23;20095;-93
2021/09/02 17:32:19;;;;;;;1.80;0.50;;;17.10;99.90;;;;;;6184008;23;20445;-92
2021/09/02 17:34:45;;;;;;;1.20;0.60;;;17.10;99.90;;;;;;6182668;23;20016;-92